This is the latest recevied weather packets stored in our database for station/object KD8OZS. If no packets are shown the sender has not sent any weather packets the latest 10 day(s).
| Time | Temp. | Humidity | Pressure | Rain* | Wind** | Luminosity | Snow |
|---|---|---|---|---|---|---|---|
| 1787432354 | 25° C | 81% | 1002 hPa | 0 mm | - | 175 W/m² | - |
| 1787432050 | 25.56° C | 81% | 1002.1 hPa | 0 mm | - | 171 W/m² | - |
| 1787431749 | 25.56° C | 79% | 1002.3 hPa | 0 mm | - | 275 W/m² | - |
| 1787431444 | 26.11° C | 82% | 1002.4 hPa | 0 mm | - | 405 W/m² | - |
| 1787431140 | 25.56° C | 85% | 1002.3 hPa | 0 mm | - | 402 W/m² | - |
| 1787430836 | 25.56° C | 85% | 1002.5 hPa | 0 mm | - | 361 W/m² | - |
| 1787430531 | 25° C | 86% | 1002.5 hPa | 0 mm | - | 533 W/m² | - |
| 1787430229 | 25° C | 86% | 1002.7 hPa | 0 mm | - | 541 W/m² | - |
| 1787429925 | 23.89° C | 87% | 1002.8 hPa | 0 mm | - | 527 W/m² | - |
| 1787429624 | 23.89° C | 91% | 1002.8 hPa | 0 mm | - | 590 W/m² | - |
| 1787429320 | 22.78° C | 92% | 1002.6 hPa | 1.78 mm | - | 418 W/m² | - |
| 1787429016 | 22.78° C | 91% | 1002.7 hPa | 7.87 mm | - | 337 W/m² | - |
| 1787428711 | 23.33° C | 90% | 1002.9 hPa | 11.94 mm | - | 424 W/m² | - |
| 1787428407 | 24.44° C | 84% | 1003 hPa | 6.1 mm | - | 371 W/m² | - |
| 1787428101 | 26.11° C | 71% | 1003 hPa | 0 mm | - | 43 W/m² | - |
| 1787427796 | 27.22° C | 70% | 1002.8 hPa | 0 mm | - | 61 W/m² | - |
| 1787427492 | 27.22° C | 70% | 1003 hPa | 0 mm | - | 225 W/m² | - |
| 1787427189 | 27.78° C | 70% | 1003.1 hPa | 0 mm | - | 324 W/m² | - |
| 1787426883 | 27.78° C | 68% | 1003.1 hPa | 0 mm | - | 572 W/m² | - |
| 1787426578 | 27.78° C | 68% | 1003.2 hPa | 0 mm | - | 631 W/m² | - |
| 1787426275 | 27.22° C | 69% | 1003.4 hPa | 0 mm | - | 624 W/m² | - |
| 1787425971 | 27.78° C | 65% | 1003.7 hPa | 0 mm | - | 652 W/m² | - |
| 1787425667 | 27.78° C | 65% | 1003.2 hPa | 0 mm | - | 626 W/m² | - |
| 1787425363 | 27.78° C | 66% | 1003.4 hPa | 0 mm | - | 627 W/m² | - |
| 1787425057 | 27.78° C | 69% | 1003.2 hPa | 0 mm | - | 645 W/m² | - |
* Rain latest hour (hover to see other rain measurements)
** Current wind speed in m/s (hover to see current wind gust speed)